KDFW/DFW METAR and TAF weather

Enter ICAO airport designator
Station Type Date Time Source
KDFW METAR 2019/02/16 06:53 UTC NOAA

KDFW 160653Z 02010KT 10SM OVC015 02/M02 A2993 RMK AO2 SLP132 T00171022


Station Type Date Time Source
KDFW Decoded METAR 2019/02/16 06:53 UTC NOAA

DALLAS/FT. WORTH INTERNATIONAL AIRPORT , TX, United States (KDFW) 32-54N 097-02W 174M
Feb 16, 2019 - 01:53 AM EST / 2019.02.16 0653 UTC
Wind: from the NNE (020 degrees) at 12 MPH (10 KT):0
Visibility: 10 mile(s):0
Sky conditions: overcast
Temperature: 35.1 F (1.7 C)
Dew Point: 28.0 F (-2.2 C)
Relative Humidity: 75%
Pressure (altimeter): 29.93 in. Hg (1013 hPa)
ob: KDFW 160653Z 02010KT 10SM OVC015 02/M02 A2993 RMK AO2 SLP132 T00171022
cycle: 7

Station Type Date Time Source
KDFW TAF 2019/02/16 06:36 UTC NOAA

TAF KDFW 160535Z 1606/1712 01014KT P6SM OVC018
FM161800 11005KT P6SM BKN015
FM162200 14007KT P6SM SCT015 BKN200
FM170400 16007KT P6SM BKN015
FM171100 32013KT P6SM SCT015


Example: see airport list